logo tempoitalia

Diretta Meteo Timisoara, Romanialunedì 31 agosto ore 08:00

Mappa
Sereno 21 °C Sereno 24 Ore: T.min 19 T.max 33
Ponente Est Km/h 9.3 Punto di rugiada: 14 °C Umidità: 64% Visibilità: 10 Km
Il sole sorge alle: 06:54 Il sole tramonta alle: 20:15
31 Agosto 2026 08:00 tempo osservato: Sereno Sereno 21 64 1016 vento: Nord E 9.3
31 Agosto 2026 07:30 tempo osservato: Sereno Sereno 19 72 1016 vento: Nord E 13
31 Agosto 2026 07:00 tempo osservato: Sereno Sereno 19 72 1016 vento: Nord E 11.1
31 Agosto 2026 06:30 tempo osservato: Sereno Sereno 19 72 1016 vento: Nord E 13
31 Agosto 2026 06:00 tempo osservato: Sereno Sereno 20 68 1015 vento: Nord E 11.1
31 Agosto 2026 05:30 tempo osservato: Sereno Sereno 19 72 1015 vento: Nord E 13
31 Agosto 2026 05:00 tempo osservato: Sereno Sereno 20 68 1016 vento: Nord E 13
31 Agosto 2026 04:30 tempo osservato: Sereno Sereno 20 68 1016 vento: Nord E 13
31 Agosto 2026 04:00 tempo osservato: Sereno Sereno 19 68 1016 vento: Nord E 13
31 Agosto 2026 03:30 tempo osservato: Sereno Sereno 19 63 1016 vento: Nord E 11.1
31 Agosto 2026 03:00 tempo osservato: Sereno Sereno 19 55 1016 vento: Nord E 11.1
31 Agosto 2026 02:30 tempo osservato: Sereno Sereno 19 52 1016 vento: Nord E 9.3
31 Agosto 2026 02:00 tempo osservato: Sereno Sereno 19 48 1016 vento: Nord E/NE 9.3
31 Agosto 2026 01:30 tempo osservato: Sereno Sereno 20 45 1016 vento: Nord N 5.5
31 Agosto 2026 01:00 tempo osservato: Sereno Sereno 20 42 1016 vento: Nord E/NE 9.3
31 Agosto 2026 00:30 tempo osservato: Sereno Sereno 20 39 1016 vento: Nord E/NE 7.4
31 Agosto 2026 00:00 tempo osservato: Sereno Sereno 22 37 1016 vento: Nord N 5.5
30 Agosto 2026 23:30 tempo osservato: Sereno Sereno 24 35 1016 vento: Nord N 3.7
30 Agosto 2026 23:00 tempo osservato: Sereno Sereno 23 35 1016 vento: Nord N 3.7
30 Agosto 2026 22:30 tempo osservato: Sereno Sereno 25 33 1016 vento: Nord N 3.7
30 Agosto 2026 22:00 tempo osservato: Sereno Sereno 26 29 1015 vento: Nord N 3.7
30 Agosto 2026 21:30 tempo osservato: Sereno Sereno 27 30 1015 vento: Nord N 3.7
30 Agosto 2026 21:00 tempo osservato: Sereno Sereno 28 28 1015 vento: Nord N 0
30 Agosto 2026 20:30 tempo osservato: Sereno Sereno 29 25 1015 vento: Nord N 0
30 Agosto 2026 20:00 tempo osservato: Sereno Sereno 31 25 1014 vento: Nord N 3.7
30 Agosto 2026 19:30 tempo osservato: Sereno Sereno 33 22 1014 vento: Nord O/NO 7.4
30 Agosto 2026 19:00 tempo osservato: Sereno Sereno 32 24 1014 vento: Nord N 3.7
30 Agosto 2026 18:30 tempo osservato: Sereno Sereno 33 22 1014 vento: Nord O/NO 11.1
30 Agosto 2026 18:00 tempo osservato: Sereno Sereno 33 22 1015 vento: Nord NO 9.3
30 Agosto 2026 17:30 tempo osservato: Sereno Sereno 33 24 1015 vento: Nord N 5.5
30 Agosto 2026 17:00 tempo osservato: Sereno Sereno 33 24 1015 vento: Nord N 5.5
30 Agosto 2026 16:30 tempo osservato: Sereno Sereno 33 26 1015 vento: Nord O 7.4
30 Agosto 2026 16:00 tempo osservato: Sereno Sereno 32 27 1015 vento: Nord NO 13
30 Agosto 2026 15:30 tempo osservato: Sereno Sereno 32 27 1016 vento: Nord N 3.7
30 Agosto 2026 15:00 tempo osservato: Sereno Sereno 31 29 1016 vento: Nord N/NO 9.3
30 Agosto 2026 14:30 tempo osservato: Sereno Sereno 31 29 1016 vento: Nord N 9.3
30 Agosto 2026 14:00 tempo osservato: Sereno Sereno 30 33 1016 vento: Nord NO 11.1
30 Agosto 2026 13:30 tempo osservato: Poco Nuvoloso Poco Nuvoloso 30 35 1017 vento: Nord N 9.3
30 Agosto 2026 13:00 tempo osservato: Poco Nuvoloso Poco Nuvoloso 29 39 1017 vento: Nord O 11.1
30 Agosto 2026 12:30 tempo osservato: Sereno Sereno 28 45 1017 vento: Nord N 7.4
30 Agosto 2026 12:00 tempo osservato: Sereno Sereno 28 48 1017 vento: Nord N 3.7
30 Agosto 2026 11:30 tempo osservato: Sereno Sereno 27 50 1017 vento: Nord N 3.7
30 Agosto 2026 11:00 tempo osservato: Sereno Sereno 26 54 1017 vento: Nord N 3.7
30 Agosto 2026 10:30 tempo osservato: Sereno Sereno 25 57 1017 vento: Nord N 3.7
30 Agosto 2026 10:00 tempo osservato: Sereno Sereno 24 60 1017 vento: Nord N 5.5
30 Agosto 2026 09:30 tempo osservato: Sereno Sereno 23 64 1017 vento: Nord E 11.1
30 Agosto 2026 09:00 tempo osservato: Sereno Sereno 21 68 1017 vento: Nord E 11.1